createdAt,value
2022-11-02T00:09:17.172Z,99.0
2022-11-02T00:23:17.161Z,99.0
2022-11-02T00:37:17.233Z,99.0
2022-11-02T00:51:17.214Z,99.0
2022-11-02T01:05:17.207Z,99.0
2022-11-02T01:19:17.229Z,99.0
2022-11-02T01:33:17.215Z,99.0
2022-11-02T01:47:17.233Z,99.0
2022-11-02T02:01:17.347Z,99.0
2022-11-02T02:15:17.232Z,99.0
2022-11-02T02:29:17.244Z,99.0
2022-11-02T02:43:17.244Z,99.0
2022-11-02T02:57:17.277Z,99.0
2022-11-02T03:11:17.262Z,99.0
2022-11-02T03:25:17.269Z,99.0
2022-11-02T03:39:17.317Z,99.0
2022-11-02T03:53:17.409Z,99.0
2022-11-02T04:07:17.412Z,99.0
2022-11-02T04:21:17.376Z,99.0
2022-11-02T04:35:17.370Z,99.0
2022-11-02T04:49:17.422Z,99.0
2022-11-02T05:03:17.520Z,99.0
2022-11-02T05:17:17.503Z,99.0
2022-11-02T05:31:17.511Z,99.0
2022-11-02T05:45:20.514Z,99.0
2022-11-02T06:00:17.511Z,99.0
2022-11-02T06:15:17.520Z,99.0
2022-11-02T06:30:17.505Z,99.0
2022-11-02T06:45:17.528Z,99.0
2022-11-02T07:00:19.293Z,99.0
2022-11-02T07:15:17.572Z,99.0
2022-11-02T07:30:17.583Z,99.0
2022-11-02T07:45:17.592Z,99.0
2022-11-02T08:00:17.573Z,97.0
2022-11-02T08:15:17.749Z,94.0
2022-11-02T08:30:17.777Z,92.0
2022-11-02T08:45:17.798Z,88.0
2022-11-02T09:00:17.796Z,86.0
2022-11-02T09:15:17.826Z,78.0
2022-11-02T09:30:17.807Z,75.0
2022-11-02T09:45:17.783Z,73.0
2022-11-02T10:00:17.907Z,71.0
2022-11-02T10:15:17.912Z,73.0
2022-11-02T10:30:17.915Z,71.0
2022-11-02T10:45:17.942Z,68.0
2022-11-02T11:00:17.933Z,68.0
2022-11-02T11:15:47.225Z,70.0
2022-11-02T11:31:17.953Z,72.0
2022-11-02T11:46:17.961Z,77.0
2022-11-02T12:01:17.996Z,79.0
2022-11-02T12:16:17.954Z,78.0
2022-11-02T12:31:17.964Z,76.0
2022-11-02T12:46:17.968Z,75.0
2022-11-02T13:01:17.987Z,75.0
2022-11-02T13:16:17.984Z,76.0
2022-11-02T13:31:17.984Z,81.0
2022-11-02T13:46:18.009Z,88.0
2022-11-02T14:01:18.100Z,92.0
2022-11-02T14:16:18.034Z,94.0
2022-11-02T14:31:18.040Z,94.0
2022-11-02T14:46:18.052Z,95.0
2022-11-02T15:01:18.166Z,95.0
2022-11-02T15:16:18.056Z,96.0
2022-11-02T15:31:21.881Z,96.0
2022-11-02T15:46:18.135Z,96.0
2022-11-02T16:01:18.190Z,97.0
2022-11-02T16:16:18.098Z,97.0
2022-11-02T16:31:19.160Z,97.0
2022-11-02T16:45:18.143Z,97.0
2022-11-02T16:59:18.164Z,98.0
2022-11-02T17:13:21.726Z,98.0
2022-11-02T17:27:18.230Z,98.0
2022-11-02T17:41:18.165Z,98.0
2022-11-02T17:55:18.204Z,98.0
2022-11-02T18:09:18.245Z,98.0
2022-11-02T18:23:18.217Z,98.0
2022-11-02T18:37:18.213Z,98.0
2022-11-02T18:51:18.217Z,98.0
2022-11-02T19:05:18.219Z,98.0
2022-11-02T19:19:18.217Z,99.0
2022-11-02T19:33:18.235Z,99.0
2022-11-02T19:47:18.225Z,99.0
2022-11-02T20:01:18.302Z,99.0
2022-11-02T20:15:18.231Z,99.0
2022-11-02T20:29:18.444Z,99.0
2022-11-02T20:43:18.247Z,99.0
2022-11-02T20:57:18.273Z,99.0
2022-11-02T21:11:18.272Z,99.0
2022-11-02T21:25:18.255Z,99.0
2022-11-02T21:39:18.272Z,99.0
2022-11-02T21:53:18.269Z,99.0
2022-11-02T22:07:18.297Z,99.0
2022-11-02T22:21:18.295Z,99.0
2022-11-02T22:35:18.292Z,99.0
2022-11-02T22:49:18.283Z,99.0
2022-11-02T23:03:18.290Z,99.0
2022-11-02T23:17:18.315Z,99.0
2022-11-02T23:31:18.334Z,99.0
2022-11-02T23:45:18.369Z,99.0
2022-11-02T23:59:18.354Z,99.0
